Time;durP1;ratioP1;P1;durP2;ratioP2;P2;SDS_P1;SDS_P2;PMS_P1;PMS_P2;Temp;Humidity;BMP_temperature;BMP_pressure;BME280_temperature;BME280_humidity;BME280_pressure;Samples;Min_cycle;Max_cycle;Signal;HPM_P1;HPM_P2
2022/10/17 00:01:00;;;;;;;0.27;0.27;;;;;;;9.21;75.52;100640.25;5113247;28;20261;-58
2022/10/17 00:03:27;;;;;;;0.77;0.47;;;;;;;9.19;75.26;100643.75;5113321;28;20703;-63
2022/10/17 00:05:56;;;;;;;0.60;0.60;;;;;;;9.24;75.18;100645.22;5113237;28;20267;-63
2022/10/17 00:08:23;;;;;;;0.23;0.23;;;;;;;9.24;75.15;100641.84;5112975;28;20217;-63
2022/10/17 00:10:56;;;;;;;0.50;0.50;;;;;;;9.28;74.94;100646.75;5113075;28;20220;-63
2022/10/17 00:13:23;;;;;;;1.07;0.97;;;;;;;9.33;75.54;100645.72;5112958;28;20251;-63
2022/10/17 00:15:50;;;;;;;0.40;0.40;;;;;;;9.35;75.18;100649.06;5112827;28;20280;-58
2022/10/17 00:18:17;;;;;;;0.77;0.77;;;;;;;9.35;75.31;100649.06;5112859;28;20221;-58
2022/10/17 00:20:44;;;;;;;0.53;0.53;;;;;;;9.32;75.87;100650.00;5112725;28;20225;-63
2022/10/17 00:23:12;;;;;;;0.40;0.40;;;;;;;9.35;75.73;100649.06;5113034;28;20225;-59
2022/10/17 00:25:39;;;;;;;0.60;0.60;;;;;;;9.36;76.26;100650.69;5112907;28;20212;-63
2022/10/17 00:28:06;;;;;;;0.60;0.60;;;;;;;9.34;76.30;100647.38;5112827;28;20364;-58
2022/10/17 00:30:33;;;;;;;1.17;0.77;;;;;;;9.35;76.65;100651.59;5112704;28;20205;-63
2022/10/17 00:33:00;;;;;;;0.40;0.40;;;;;;;9.32;77.03;100646.63;5112868;28;20228;-63
2022/10/17 00:35:27;;;;;;;0.60;0.60;;;;;;;9.33;76.86;100650.84;5112429;28;20220;-63
2022/10/17 00:37:53;;;;;;;0.77;0.40;;;;;;;9.35;76.96;100656.72;5112430;28;20596;-63
2022/10/17 00:40:22;;;;;;;0.40;0.40;;;;;;;9.30;77.33;100652.63;5112581;28;20236;-63
2022/10/17 00:42:51;;;;;;;0.27;0.27;;;;;;;9.25;77.36;100649.44;5112215;28;20220;-63
2022/10/17 00:45:24;;;;;;;0.63;0.63;;;;;;;9.16;77.32;100659.19;5112479;28;20254;-59
2022/10/17 00:47:56;;;;;;;0.60;0.27;;;;;;;9.12;77.55;100653.38;5112198;28;20221;-63
2022/10/17 00:50:24;;;;;;;0.57;0.57;;;;;;;9.09;77.44;100663.72;5112566;28;20205;-59
2022/10/17 00:52:52;;;;;;;0.63;0.63;;;;;;;9.07;77.40;100662.94;5111145;28;20604;-63
2022/10/17 00:55:23;;;;;;;0.70;0.70;;;;;;;9.03;77.56;100657.13;5112215;28;20200;-63
2022/10/17 00:57:51;;;;;;;0.23;0.23;;;;;;;8.91;77.25;100660.19;5111816;28;20213;-58
2022/10/17 01:00:19;;;;;;;0.30;0.30;;;;;;;8.88;76.84;100659.50;5112274;28;20600;-63
2022/10/17 01:02:46;;;;;;;0.63;0.53;;;;;;;9.01;77.53;100651.25;5111837;28;20221;-58
2022/10/17 01:05:15;;;;;;;0.40;0.40;;;;;;;8.96;76.93;100653.19;5112053;28;20213;-63
2022/10/17 01:07:43;;;;;;;0.40;0.40;;;;;;;9.03;76.92;100661.41;5111364;28;20224;-59
2022/10/17 01:10:11;;;;;;;0.53;0.53;;;;;;;8.90;77.36;100660.25;5111947;28;20208;-63
2022/10/17 01:12:55;;;;;;;0.20;0.20;;;;;;;8.90;77.35;100668.75;5111722;28;20227;-59
2022/10/17 01:15:32;;;;;;;0.60;0.50;;;;;;;8.86;77.27;100658.72;5111733;28;20208;-58
2022/10/17 01:18:13;;;;;;;0.57;0.57;;;;;;;8.76;77.86;100658.25;5111619;28;20225;-63
2022/10/17 01:21:01;;;;;;;0.77;0.70;;;;;;;8.87;78.10;100658.63;5111683;28;20305;-58
2022/10/17 01:23:48;;;;;;;0.70;0.70;;;;;;;8.77;77.61;100663.28;5111589;28;20233;-59
2022/10/17 01:26:23;;;;;;;0.63;0.40;;;;;;;8.75;77.38;100659.94;5111756;28;20193;-58
2022/10/17 01:29:22;;;;;;;1.87;0.70;;;;;;;8.77;77.58;100662.47;5111594;28;20196;-59
2022/10/17 01:31:59;;;;;;;0.27;0.27;;;;;;;8.76;77.50;100656.53;5111294;28;20213;-63
2022/10/17 01:34:32;;;;;;;0.40;0.40;;;;;;;8.81;77.55;100656.34;5111480;28;20212;-63
2022/10/17 01:37:05;;;;;;;0.40;0.40;;;;;;;8.86;77.51;100661.25;5111149;28;20213;-59
2022/10/17 01:39:41;;;;;;;0.30;0.30;;;;;;;8.85;77.60;100663.00;5111601;28;20223;-59
2022/10/17 01:42:14;;;;;;;0.77;0.77;;;;;;;8.89;77.97;100656.03;5111059;28;20209;-58
2022/10/17 01:44:48;;;;;;;0.50;0.50;;;;;;;8.94;78.34;100667.72;5111455;28;20205;-59
2022/10/17 01:47:20;;;;;;;0.37;0.37;;;;;;;8.94;78.16;100664.34;5111029;28;20224;-63
2022/10/17 01:49:51;;;;;;;0.30;0.30;;;;;;;8.91;78.57;100661.91;5111345;28;20205;-58
2022/10/17 01:52:23;;;;;;;0.20;0.20;;;;;;;8.92;78.57;100672.03;5110958;28;20256;-59
2022/10/17 01:54:54;;;;;;;0.57;0.57;;;;;;;8.94;78.74;100669.44;5111210;28;20585;-59
2022/10/17 01:57:27;;;;;;;0.30;0.30;;;;;;;8.94;78.74;100666.91;5111050;27;20221;-58
2022/10/17 01:59:56;;;;;;;0.40;0.40;;;;;;;8.89;78.67;100663.69;5110978;28;20598;-58
2022/10/17 02:02:26;;;;;;;0.43;0.40;;;;;;;8.84;79.21;100674.91;5110655;28;20608;-59
2022/10/17 02:04:56;;;;;;;0.60;0.60;;;;;;;8.78;79.53;100675.13;5111122;28;20209;-58
2022/10/17 02:07:23;;;;;;;0.87;0.60;;;;;;;8.75;79.73;100680.34;5110735;28;20213;-58
2022/10/17 02:09:50;;;;;;;0.40;0.40;;;;;;;8.77;79.80;100677.75;5110889;28;20198;-58
2022/10/17 02:12:33;;;;;;;1.07;0.73;;;;;;;8.80;79.90;100677.63;5110415;28;20213;-63
2022/10/17 02:15:11;;;;;;;0.30;0.30;;;;;;;8.72;80.08;100675.38;5110710;28;20212;-59
2022/10/17 02:17:48;;;;;;;0.30;0.30;;;;;;;8.72;79.81;100680.47;5110715;28;20224;-59
2022/10/17 02:20:23;;;;;;;0.47;0.47;;;;;;;8.70;79.63;100671.25;5110655;28;20220;-63
2022/10/17 02:22:57;;;;;;;0.30;0.30;;;;;;;8.68;79.57;100680.66;5110613;27;20232;-63
2022/10/17 02:25:33;;;;;;;0.57;0.57;;;;;;;8.69;79.06;100685.69;5110528;28;20211;-63
2022/10/17 02:28:09;;;;;;;0.50;0.50;;;;;;;8.74;79.36;100682.97;5110710;28;20606;-58
2022/10/17 02:30:42;;;;;;;0.30;0.30;;;;;;;8.74;78.98;100682.97;5110318;28;20193;-63
2022/10/17 02:33:15;;;;;;;1.70;0.33;;;;;;;8.76;79.16;100676.94;5110548;28;20209;-58
2022/10/17 02:35:46;;;;;;;0.87;0.67;;;;;;;8.74;79.15;100673.59;5110616;28;20204;-63
2022/10/17 02:38:14;;;;;;;0.87;0.73;;;;;;;8.73;78.74;100684.72;5110327;28;20221;-62
2022/10/17 02:40:42;;;;;;;0.57;0.57;;;;;;;8.73;78.88;100699.19;5110397;28;20228;-63
2022/10/17 02:43:10;;;;;;;0.37;0.37;;;;;;;8.69;79.10;100695.06;5110387;28;20243;-59
2022/10/17 02:45:38;;;;;;;0.53;0.53;;;;;;;8.70;79.08;100696.75;5110562;28;20594;-63
2022/10/17 02:48:09;;;;;;;0.63;0.63;;;;;;;8.63;78.85;100697.84;5109917;28;20218;-63
2022/10/17 02:50:51;;;;;;;0.57;0.57;;;;;;;8.59;78.62;100705.63;5110262;28;20197;-59
2022/10/17 02:53:24;;;;;;;0.10;0.10;;;;;;;8.62;78.47;100704.69;5110295;28;20221;-63
2022/10/17 02:55:56;;;;;;;0.30;0.30;;;;;;;8.66;78.49;100711.31;5110234;28;20194;-63
2022/10/17 02:58:27;;;;;;;0.60;0.60;;;;;;;8.69;78.42;100707.81;5110373;28;20221;-63
2022/10/17 03:00:54;;;;;;;0.13;0.13;;;;;;;8.65;78.49;100709.66;5110133;28;20233;-59
2022/10/17 03:03:24;;;;;;;0.47;0.47;;;;;;;8.66;78.26;100711.31;5110261;28;20572;-58
2022/10/17 03:05:53;;;;;;;0.63;0.63;;;;;;;8.69;78.55;100711.19;5109907;28;20201;-63
2022/10/17 03:08:20;;;;;;;0.47;0.43;;;;;;;8.70;78.24;100712.88;5110041;28;20229;-63
2022/10/17 03:10:47;;;;;;;0.40;0.40;;;;;;;8.61;77.94;100723.44;5110130;28;20283;-58
2022/10/17 03:13:15;;;;;;;0.53;0.53;;;;;;;8.65;78.31;100724.97;5109975;28;20224;-58
2022/10/17 03:15:42;;;;;;;0.53;0.53;;;;;;;8.66;78.38;100721.50;5111690;28;20193;-58
2022/10/17 03:18:09;;;;;;;0.33;0.33;;;;;;;8.65;78.39;100727.50;5113983;27;20217;-58
2022/10/17 03:20:36;;;;;;;0.30;0.30;;;;;;;8.65;78.20;100724.97;5113972;28;20583;-63
2022/10/17 03:23:04;;;;;;;0.30;0.30;;;;;;;8.63;78.36;100731.81;5113782;28;20220;-58
2022/10/17 03:25:31;;;;;;;0.40;0.40;;;;;;;8.65;78.56;100724.13;5113982;28;20194;-58
2022/10/17 03:27:59;;;;;;;0.40;0.40;;;;;;;8.66;78.41;100731.72;5113727;28;20217;-63
2022/10/17 03:30:26;;;;;;;0.73;0.50;;;;;;;8.66;78.71;100723.25;5113823;28;20290;-59
2022/10/17 03:32:52;;;;;;;0.20;0.20;;;;;;;8.63;78.64;100726.72;5113690;28;20482;-63
2022/10/17 03:35:20;;;;;;;0.37;0.37;;;;;;;8.62;79.00;100727.63;5113925;28;20197;-63
2022/10/17 03:37:46;;;;;;;0.67;0.67;;;;;;;8.52;78.75;100728.84;5113710;28;20709;-63
2022/10/17 03:40:15;;;;;;;0.33;0.33;;;;;;;8.39;78.60;100723.38;5113760;28;20201;-59
2022/10/17 03:42:42;;;;;;;0.67;0.67;;;;;;;8.32;78.51;100730.41;5113751;28;20228;-59
2022/10/17 03:45:09;;;;;;;0.77;0.40;;;;;;;8.25;78.64;100725.56;5113804;28;20193;-58
2022/10/17 03:47:36;;;;;;;0.87;0.40;;;;;;;8.29;78.75;100730.53;5113380;28;20312;-63
2022/10/17 03:50:04;;;;;;;1.00;0.70;;;;;;;8.35;79.13;100732.84;5113737;28;20202;-59
2022/10/17 03:52:31;;;;;;;0.40;0.30;;;;;;;8.38;79.18;100737.00;5113322;28;20766;-59
2022/10/17 03:54:57;;;;;;;0.57;0.57;;;;;;;8.37;79.31;100731.03;5113842;28;20205;-58
2022/10/17 03:57:26;;;;;;;0.60;0.60;;;;;;;8.32;79.42;100738.06;5113060;28;20715;-59
2022/10/17 03:59:52;;;;;;;0.50;0.50;;;;;;;8.31;79.58;100736.38;5113679;28;20583;-59
2022/10/17 04:02:19;;;;;;;0.37;0.37;;;;;;;8.25;79.70;100736.59;5112918;28;20236;-63
2022/10/17 04:04:46;;;;;;;0.40;0.40;;;;;;;8.27;80.46;100739.94;5113405;28;20441;-63
2022/10/17 04:07:13;;;;;;;0.30;0.30;;;;;;;8.13;79.60;100745.50;5113184;28;20220;-63
2022/10/17 04:09:40;;;;;;;0.43;0.37;;;;;;;8.05;79.08;100739.84;5113094;28;20197;-63
2022/10/17 04:12:07;;;;;;;0.23;0.23;;;;;;;8.11;79.27;100738.81;5113187;28;20225;-63
2022/10/17 04:14:36;;;;;;;0.20;0.20;;;;;;;8.15;79.46;100748.00;5113219;28;20212;-58
2022/10/17 04:17:03;;;;;;;0.30;0.30;;;;;;;8.14;79.78;100743.78;5113217;28;20736;-59
2022/10/17 04:19:30;;;;;;;2.17;1.13;;;;;;;8.04;79.39;100747.56;5112985;28;20587;-58
2022/10/17 04:21:56;;;;;;;0.57;0.57;;;;;;;8.09;79.46;100751.59;5112669;28;20244;-63
2022/10/17 04:24:24;;;;;;;2.10;1.70;;;;;;;8.15;79.25;100745.47;5112862;28;20209;-58
2022/10/17 04:26:52;;;;;;;0.30;0.30;;;;;;;8.12;79.34;100743.84;5111402;28;20225;-59
2022/10/17 04:29:19;;;;;;;0.87;0.73;;;;;;;8.08;79.56;100754.19;5112662;28;20232;-58
2022/10/17 04:31:48;;;;;;;0.33;0.33;;;;;;;8.09;79.60;100758.44;5112402;28;20248;-63
2022/10/17 04:34:15;;;;;;;0.30;0.30;;;;;;;8.06;79.93;100759.34;5112732;28;20587;-63
2022/10/17 04:36:42;;;;;;;0.43;0.43;;;;;;;8.10;79.73;100762.63;5112532;28;20220;-59
2022/10/17 04:39:09;;;;;;;0.30;0.30;;;;;;;8.15;79.68;100759.03;5112743;28;20664;-58
2022/10/17 04:41:36;;;;;;;0.67;0.63;;;;;;;8.10;79.80;100768.53;5112375;28;20234;-59
2022/10/17 04:44:02;;;;;;;0.60;0.50;;;;;;;8.11;80.29;100764.28;5112362;28;20193;-59
2022/10/17 04:46:29;;;;;;;0.30;0.30;;;;;;;8.10;80.45;100757.53;5112367;28;20201;-63
2022/10/17 04:48:58;;;;;;;0.50;0.50;;;;;;;8.12;80.50;100765.97;5112383;28;20193;-58
2022/10/17 04:51:24;;;;;;;0.10;0.10;;;;;;;8.14;80.83;100769.25;5112130;28;20216;-58
2022/10/17 04:53:51;;;;;;;0.10;0.10;;;;;;;8.15;80.76;100770.94;5112341;28;20197;-59
2022/10/17 04:56:20;;;;;;;0.30;0.30;;;;;;;8.15;80.99;100770.94;5112127;28;20217;-58
2022/10/17 04:58:48;;;;;;;0.47;0.20;;;;;;;8.14;80.94;100775.22;5112275;27;20205;-63
2022/10/17 05:01:17;;;;;;;0.17;0.17;;;;;;;8.16;81.00;100777.69;5112127;28;20233;-58
2022/10/17 05:03:45;;;;;;;0.77;0.43;;;;;;;8.14;80.71;100774.34;5112469;28;20579;-63
2022/10/17 05:06:15;;;;;;;0.43;0.43;;;;;;;8.19;80.63;100784.41;5112048;28;20197;-63
2022/10/17 05:08:42;;;;;;;0.67;0.60;;;;;;;8.18;80.78;100783.56;5112219;28;20200;-59
2022/10/17 05:11:17;;;;;;;0.30;0.30;;;;;;;8.19;80.31;100782.69;5111981;28;20212;-59
2022/10/17 05:13:44;;;;;;;0.87;0.80;;;;;;;8.20;79.50;100781.78;5112030;28;20196;-59
2022/10/17 05:16:11;;;;;;;0.63;0.63;;;;;;;8.29;78.87;100791.69;5111805;28;20201;-59
2022/10/17 05:18:37;;;;;;;0.40;0.40;;;;;;;8.40;79.00;100796.41;5111893;28;20225;-59
2022/10/17 05:21:05;;;;;;;0.40;0.40;;;;;;;8.49;78.35;100796.06;5111721;28;20240;-63
2022/10/17 05:23:33;;;;;;;0.60;0.60;;;;;;;8.61;78.64;100802.47;5111800;28;20221;-63
2022/10/17 05:26:00;;;;;;;0.20;0.20;;;;;;;8.66;78.94;100807.38;5111607;28;20197;-59
2022/10/17 05:28:27;;;;;;;1.27;1.17;;;;;;;8.69;78.92;100813.19;5111726;28;20210;-63
2022/10/17 05:30:54;;;;;;;0.30;0.30;;;;;;;8.78;78.81;100812.03;5111385;28;20201;-58
2022/10/17 05:33:22;;;;;;;0.57;0.50;;;;;;;8.94;79.03;100818.22;5111661;28;20577;-63
2022/10/17 05:35:49;;;;;;;0.37;0.37;;;;;;;9.01;79.13;100823.91;5111368;28;20197;-59
2022/10/17 05:38:15;;;;;;;0.70;0.70;;;;;;;9.19;78.41;100825.78;5110941;28;20221;-63
2022/10/17 05:40:44;;;;;;;0.80;0.80;;;;;;;9.51;77.38;100828.78;5111531;28;20213;-59
2022/10/17 05:43:10;;;;;;;0.43;0.43;;;;;;;9.70;76.37;100824.59;5111378;28;20210;-61
2022/10/17 05:45:37;;;;;;;0.60;0.60;;;;;;;9.91;76.59;100833.09;5111204;28;20213;-59
2022/10/17 05:48:04;;;;;;;0.30;0.30;;;;;;;10.22;74.82;100831.81;5110989;28;20217;-58
2022/10/17 05:50:32;;;;;;;0.27;0.27;;;;;;;10.63;73.50;100842.81;5111319;28;20243;-59
2022/10/17 05:52:58;;;;;;;0.10;0.10;;;;;;;10.85;74.34;100841.88;5110995;28;20220;-63
2022/10/17 05:55:25;;;;;;;0.50;0.50;;;;;;;11.18;72.31;100843.78;5111024;28;20217;-63
2022/10/17 05:57:53;;;;;;;0.47;0.47;;;;;;;11.46;72.33;100854.41;5111088;28;20715;-59
2022/10/17 06:00:21;;;;;;;0.73;0.67;;;;;;;11.68;70.59;100849.06;5111229;28;20224;-59
2022/10/17 06:02:48;;;;;;;0.40;0.40;;;;;;;12.02;70.22;100862.81;5110596;28;20232;-59
2022/10/17 06:05:16;;;;;;;0.40;0.40;;;;;;;12.33;68.38;100851.81;5111211;28;20197;-59
2022/10/17 06:07:43;;;;;;;0.70;0.70;;;;;;;12.63;66.98;100858.88;5110946;28;20228;-59
2022/10/17 06:10:11;;;;;;;0.73;0.60;;;;;;;12.89;67.21;100858.31;5111090;28;20189;-59
2022/10/17 06:12:38;;;;;;;0.90;0.67;;;;;;;13.12;65.28;100867.34;5110690;28;20221;-59
2022/10/17 06:15:08;;;;;;;0.83;0.70;;;;;;;13.34;64.46;100867.00;5110936;27;20593;-59
2022/10/17 06:17:34;;;;;;;0.60;0.40;;;;;;;13.64;64.30;100867.94;5110596;28;20269;-59
2022/10/17 06:20:01;;;;;;;0.87;0.67;;;;;;;14.00;60.93;100875.31;5110801;28;20368;-59
2022/10/17 06:22:28;;;;;;;2.43;1.40;;;;;;;14.14;59.67;100877.91;5110619;28;20229;-59
2022/10/17 06:24:55;;;;;;;1.00;0.90;;;;;;;14.22;59.48;100870.59;5110871;28;20208;-59
2022/10/17 06:27:22;;;;;;;0.47;0.47;;;;;;;14.48;59.89;100879.31;5110448;28;20217;-59
2022/10/17 06:29:50;;;;;;;1.83;0.63;;;;;;;14.65;59.89;100878.31;5109325;28;20209;-59
2022/10/17 06:32:18;;;;;;;0.80;0.80;;;;;;;14.97;58.15;100882.44;5110242;28;20219;-59
2022/10/17 06:34:45;;;;;;;0.80;0.80;;;;;;;15.12;57.57;100881.47;5110751;28;20200;-64
2022/10/17 06:37:12;;;;;;;0.70;0.70;;;;;;;15.45;56.81;100883.69;5110357;28;20211;-63
2022/10/17 06:39:38;;;;;;;1.03;0.97;;;;;;;15.48;57.06;100887.81;5110592;28;20195;-59
2022/10/17 06:42:05;;;;;;;7.97;3.60;;;;;;;15.72;55.62;100883.69;5110112;28;20233;-59
2022/10/17 06:44:32;;;;;;;1.70;0.80;;;;;;;16.01;54.67;100892.09;5110503;28;20665;-59
2022/10/17 06:46:59;;;;;;;1.67;0.93;;;;;;;16.13;53.20;100899.94;5110250;28;20600;-59
2022/10/17 06:49:28;;;;;;;1.20;1.00;;;;;;;16.24;50.79;100897.47;5109597;28;20607;-59
2022/10/17 06:51:55;;;;;;;1.37;0.93;;;;;;;16.54;52.65;100894.56;5110161;28;20217;-64
2022/10/17 06:54:22;;;;;;;2.73;1.23;;;;;;;16.82;52.24;100892.72;5110062;28;20208;-64
2022/10/17 06:56:49;;;;;;;6.10;3.43;;;;;;;17.04;52.13;100897.19;5109991;28;20706;-64
2022/10/17 06:59:15;;;;;;;1.50;1.40;;;;;;;17.33;52.05;100893.34;5110074;28;20197;-60
2022/10/17 07:01:43;;;;;;;8.70;4.03;;;;;;;17.61;51.34;100893.97;5110145;28;20629;-59
2022/10/17 07:04:09;;;;;;;2.30;1.40;;;;;;;17.87;51.42;100898.09;5110481;28;20200;-64
2022/10/17 07:06:38;;;;;;;1.90;1.20;;;;;;;18.22;50.48;100892.03;5109974;28;20224;-59
2022/10/17 07:09:06;;;;;;;2.83;1.70;;;;;;;18.28;48.77;100895.94;5110068;28;20197;-65
2022/10/17 07:11:34;;;;;;;3.10;1.60;;;;;;;18.45;48.89;100903.25;5110210;28;20689;-59
2022/10/17 07:14:01;;;;;;;1.23;1.13;;;;;;;18.23;48.11;100898.84;5110213;28;20629;-59
2022/10/17 07:16:28;;;;;;;2.13;1.60;;;;;;;18.30;49.02;100902.66;5109771;28;20198;-64
2022/10/17 07:18:56;;;;;;;2.43;1.20;;;;;;;18.16;49.21;100909.81;5110216;28;20206;-64
2022/10/17 07:21:22;;;;;;;5.23;2.47;;;;;;;18.44;48.39;100909.38;5109670;28;20610;-65
2022/10/17 07:23:51;;;;;;;1.70;1.43;;;;;;;18.73;48.13;100907.16;5110087;28;20210;-59
2022/10/17 07:26:18;;;;;;;1.30;1.20;;;;;;;18.88;48.38;100909.47;5109994;28;20689;-59
2022/10/17 07:28:47;;;;;;;2.47;1.60;;;;;;;18.80;47.74;100917.06;5110016;28;20200;-64
2022/10/17 07:31:16;;;;;;;1.90;1.13;;;;;;;18.93;47.75;100915.13;5109965;28;20577;-59
2022/10/17 07:33:44;;;;;;;0.77;0.77;;;;;;;19.16;46.68;100914.16;5110070;28;20203;-65
2022/10/17 07:36:11;;;;;;;1.17;1.00;;;;;;;19.40;46.39;100923.53;5109784;28;20800;-65
2022/10/17 07:38:38;;;;;;;3.27;1.37;;;;;;;19.63;45.28;100927.72;5109882;28;20224;-65
2022/10/17 07:41:08;;;;;;;1.30;1.17;;;;;;;19.62;44.10;100922.63;5109934;28;20591;-59
2022/10/17 07:43:36;;;;;;;1.17;0.90;;;;;;;19.91;44.56;100922.88;5109787;28;20343;-59
2022/10/17 07:46:05;;;;;;;1.47;0.70;;;;;;;19.00;43.17;100929.28;5109046;28;20201;-59
2022/10/17 07:48:32;;;;;;;1.63;0.90;;;;;;;19.26;45.03;100919.47;5107974;28;20717;-59
2022/10/17 07:51:02;;;;;;;1.20;1.10;;;;;;;19.33;44.27;100919.78;5109416;28;20193;-65
2022/10/17 07:53:29;;;;;;;2.23;1.30;;;;;;;19.57;44.50;100920.38;5109677;28;20230;-60
2022/10/17 07:55:56;;;;;;;1.13;1.07;;;;;;;19.72;43.93;100914.94;5109329;28;20204;-59
2022/10/17 07:58:24;;;;;;;1.90;1.07;;;;;;;19.83;43.96;100917.50;5109444;28;20222;-59
2022/10/17 08:00:51;;;;;;;1.30;1.20;;;;;;;20.03;43.64;100921.84;5109913;28;20203;-60
2022/10/17 08:03:18;;;;;;;1.53;1.23;;;;;;;20.19;42.29;100923.16;5110884;28;20270;-60
2022/10/17 08:05:45;;;;;;;1.83;1.30;;;;;;;20.45;42.61;100924.44;5113061;28;20222;-64
2022/10/17 08:08:12;;;;;;;1.37;1.27;;;;;;;20.38;42.05;100928.50;5112905;28;20215;-59
2022/10/17 08:10:38;;;;;;;4.10;1.47;;;;;;;20.51;41.24;100923.09;5112908;28;20207;-60
2022/10/17 08:13:05;;;;;;;1.60;1.33;;;;;;;20.32;42.35;100926.41;5113381;28;20689;-65
2022/10/17 08:15:33;;;;;;;2.73;1.77;;;;;;;20.38;41.09;100922.47;5112948;28;20213;-60
2022/10/17 08:18:00;;;;;;;1.77;1.33;;;;;;;20.42;41.73;100929.03;5112876;28;20733;-65
2022/10/17 08:20:27;;;;;;;1.27;1.13;;;;;;;20.27;41.92;100925.97;5112767;27;20297;-62
2022/10/17 08:22:55;;;;;;;2.33;1.60;;;;;;;20.46;40.54;100933.03;5112835;28;20244;-65
2022/10/17 08:25:22;;;;;;;1.47;1.23;;;;;;;20.55;42.45;100925.31;5112867;28;20202;-60
2022/10/17 08:27:49;;;;;;;2.97;2.00;;;;;;;20.79;40.65;100926.78;5112526;28;20220;-65
2022/10/17 08:30:17;;;;;;;1.77;1.43;;;;;;;20.90;40.71;100931.88;5112684;28;20210;-65
2022/10/17 08:32:45;;;;;;;2.23;1.67;;;;;;;20.94;40.88;100929.81;5112545;28;20227;-63
2022/10/17 08:35:13;;;;;;;3.53;1.37;;;;;;;21.09;41.50;100925.91;5112512;28;20201;-60
2022/10/17 08:37:40;;;;;;;1.80;1.50;;;;;;;21.16;40.63;100924.41;5112804;28;20214;-60
2022/10/17 08:40:10;;;;;;;1.43;1.23;;;;;;;21.36;40.69;100925.28;5112304;28;20346;-60
2022/10/17 08:42:51;;;;;;;1.93;1.33;;;;;;;21.01;38.61;100931.78;5112531;28;20231;-64
2022/10/17 08:45:24;;;;;;;2.50;1.73;;;;;;;20.95;38.62;100926.28;5112328;28;20206;-60
2022/10/17 08:47:58;;;;;;;1.60;1.30;;;;;;;20.78;38.22;100930.34;5112378;28;20217;-65
2022/10/17 08:50:32;;;;;;;2.30;1.80;;;;;;;19.82;36.08;100931.44;5112301;28;20201;-65
2022/10/17 08:53:05;;;;;;;2.10;1.80;;;;;;;20.65;35.93;100937.53;5112477;28;20223;-59
2022/10/17 08:55:37;;;;;;;2.30;1.77;;;;;;;21.16;36.65;100934.00;5112213;28;20196;-65
2022/10/17 08:58:09;;;;;;;1.60;1.23;;;;;;;21.54;35.96;100935.03;5112291;28;20227;-60
2022/10/17 09:00:46;;;;;;;2.63;1.70;;;;;;;21.46;35.37;100933.09;5111951;28;20196;-65
2022/10/17 09:03:31;;;;;;;1.40;1.30;;;;;;;21.25;35.48;100944.41;5111934;28;20695;-65
2022/10/17 09:06:11;;;;;;;2.77;1.70;;;;;;;21.28;36.07;100943.31;5112040;28;20226;-65
2022/10/17 09:08:46;;;;;;;1.60;1.50;;;;;;;20.81;34.65;100945.66;5112194;28;20228;-61
2022/10/17 09:11:24;;;;;;;3.70;1.97;;;;;;;20.87;34.78;100942.53;5111925;28;20218;-60
2022/10/17 09:14:04;;;;;;;3.03;2.30;;;;;;;20.97;35.95;100946.00;5111044;28;20199;-65
2022/10/17 09:16:45;;;;;;;27.30;12.30;;;;;;;20.50;37.34;100947.41;5111758;28;20211;-65
2022/10/17 09:19:20;;;;;;;2.60;2.10;;;;;;;21.10;34.91;100945.75;5112000;28;20192;-66
2022/10/17 09:21:53;;;;;;;3.03;1.90;;;;;;;21.34;33.96;100942.78;5111669;28;20232;-60
2022/10/17 09:24:27;;;;;;;1.87;1.40;;;;;;;21.18;34.36;100945.09;5112153;28;20565;-65
2022/10/17 09:26:55;;;;;;;3.13;1.43;;;;;;;21.00;35.81;100956.16;5111577;28;20219;-60
2022/10/17 09:29:25;;;;;;;2.17;1.40;;;;;;;21.20;35.22;100945.75;5111856;28;20197;-65
2022/10/17 09:31:59;;;;;;;1.63;1.50;;;;;;;21.09;34.03;100945.88;5111307;28;20236;-60
2022/10/17 09:34:29;;;;;;;2.27;1.47;;;;;;;21.40;33.51;100946.66;5111849;28;20372;-65
2022/10/17 09:36:58;;;;;;;1.77;1.40;;;;;;;21.15;34.15;100940.16;5111524;28;20232;-65
2022/10/17 09:39:30;;;;;;;2.07;1.43;;;;;;;21.27;35.26;100940.88;5111480;28;20639;-60
2022/10/17 09:41:59;;;;;;;1.93;1.73;;;;;;;21.79;33.73;100936.28;5111324;28;20298;-61
2022/10/17 09:44:31;;;;;;;1.80;1.07;;;;;;;21.91;34.08;100941.19;5111392;28;20199;-60
2022/10/17 09:47:22;;;;;;;1.43;1.30;;;;;;;21.60;33.04;100937.09;5111170;28;20220;-60
2022/10/17 09:49:50;;;;;;;1.60;1.50;;;;;;;21.66;33.79;100933.94;5111136;28;20606;-65
2022/10/17 09:52:21;;;;;;;1.53;1.30;;;;;;;21.95;33.86;100931.28;5111084;28;20609;-66
2022/10/17 09:54:51;;;;;;;1.93;1.43;;;;;;;21.68;33.03;100924.22;5111267;28;20206;-65
2022/10/17 09:57:19;;;;;;;1.47;1.27;;;;;;;21.73;33.61;100932.44;5111081;28;20228;-65
2022/10/17 09:59:48;;;;;;;1.13;1.00;;;;;;;21.38;34.05;100933.78;5111280;28;20225;-64
2022/10/17 10:02:21;;;;;;;1.63;1.33;;;;;;;21.66;33.97;100933.94;5110914;28;20215;-60
2022/10/17 10:04:59;;;;;;;1.43;1.20;;;;;;;21.79;34.24;100926.66;5110703;28;20688;-65
2022/10/17 10:07:28;;;;;;;3.17;1.30;;;;;;;21.44;34.86;100925.44;5110625;28;20583;-65
2022/10/17 10:09:56;;;;;;;1.57;1.47;;;;;;;21.72;34.03;100924.75;5111235;28;20196;-60
2022/10/17 10:12:24;;;;;;;2.00;1.47;;;;;;;22.07;32.52;100924.97;5110750;28;20226;-65
2022/10/17 10:14:51;;;;;;;1.93;1.30;;;;;;;21.93;32.47;100928.00;5110614;28;20193;-60
2022/10/17 10:17:37;;;;;;;1.50;1.27;;;;;;;21.64;33.83;100917.63;5110738;27;20612;-60
2022/10/17 10:20:27;;;;;;;2.03;1.50;;;;;;;21.12;34.99;100917.00;5110664;28;20234;-65
2022/10/17 10:23:16;;;;;;;1.97;1.10;;;;;;;20.72;34.37;100917.88;5110463;28;20295;-65
2022/10/17 10:26:05;;;;;;;1.57;1.13;;;;;;;21.32;35.26;100913.50;5110316;28;20284;-64
2022/10/17 10:28:35;;;;;;;0.97;0.90;;;;;;;21.25;34.65;100912.38;5106470;28;20232;-65
2022/10/17 10:31:06;;;;;;;1.23;1.13;;;;;;;20.98;34.16;100916.44;5110389;28;20209;-59
2022/10/17 10:33:41;;;;;;;1.30;1.20;;;;;;;21.23;36.20;100909.06;5110701;28;20220;-65
2022/10/17 10:36:09;;;;;;;2.77;1.60;;;;;;;21.39;34.98;100899.00;5110361;28;20204;-60
2022/10/17 10:38:41;;;;;;;3.13;1.27;;;;;;;21.53;35.67;100895.16;5110772;28;20589;-60
2022/10/17 10:41:10;;;;;;;2.40;1.30;;;;;;;21.51;34.90;100894.47;5110172;28;20195;-61
2022/10/17 10:43:41;;;;;;;1.53;0.97;;;;;;;21.35;36.11;100892.41;5110587;28;20592;-63
2022/10/17 10:46:18;;;;;;;1.17;1.07;;;;;;;21.39;35.41;100893.78;5110216;28;20200;-60
2022/10/17 10:48:51;;;;;;;0.80;0.80;;;;;;;21.72;34.10;100889.09;5110716;28;20198;-60
2022/10/17 10:51:23;;;;;;;1.30;1.00;;;;;;;21.47;35.39;100883.53;5110075;28;20196;-59
2022/10/17 10:53:56;;;;;;;0.80;0.80;;;;;;;21.25;35.78;100886.34;5110311;28;20203;-60
2022/10/17 10:56:26;;;;;;;1.83;1.20;;;;;;;21.41;36.44;100878.03;5110142;28;20211;-59
2022/10/17 10:58:56;;;;;;;2.23;0.80;;;;;;;21.18;36.73;100882.66;5110292;28;20208;-59
2022/10/17 11:01:31;;;;;;;1.00;0.90;;;;;;;20.90;36.83;100872.06;5109986;28;20202;-64
2022/10/17 11:04:12;;;;;;;1.33;1.17;;;;;;;21.26;37.60;100882.78;5110205;28;20244;-60
2022/10/17 11:06:43;;;;;;;0.80;0.80;;;;;;;20.93;36.91;100871.81;5110384;28;20600;-64
2022/10/17 11:09:19;;;;;;;1.43;1.10;;;;;;;20.93;37.58;100870.97;5110250;28;20205;-65
2022/10/17 11:11:53;;;;;;;2.60;1.23;;;;;;;20.44;37.75;100873.41;5110001;28;20214;-59
2022/10/17 11:14:29;;;;;;;1.60;1.40;;;;;;;20.34;38.31;100865.56;5110253;28;20203;-65
2022/10/17 11:17:03;;;;;;;1.20;1.10;;;;;;;20.46;38.97;100868.09;5109835;28;20608;-59
2022/10/17 11:19:36;;;;;;;0.83;0.83;;;;;;;20.54;37.88;100863.91;5110213;28;20196;-65
2022/10/17 11:22:15;;;;;;;0.90;0.90;;;;;;;20.85;38.60;100858.63;5109922;28;20228;-59
2022/10/17 11:24:48;;;;;;;1.23;1.07;;;;;;;21.00;38.35;100851.28;5109970;28;20609;-60
2022/10/17 11:27:15;;;;;;;1.10;1.00;;;;;;;21.36;37.19;100849.84;5109874;28;20227;-65
2022/10/17 11:29:44;;;;;;;2.27;0.80;;;;;;;21.41;36.52;100854.59;5110305;28;20221;-60
2022/10/17 11:32:18;;;;;;;1.53;0.70;;;;;;;21.17;36.36;100844.59;5109535;28;20228;-65
2022/10/17 11:34:49;;;;;;;1.63;1.33;;;;;;;20.43;37.48;100848.38;5110206;28;20205;-60
2022/10/17 11:37:22;;;;;;;1.30;1.07;;;;;;;20.57;38.53;100840.25;5112175;28;20211;-63
2022/10/17 11:39:55;;;;;;;1.33;1.10;;;;;;;20.82;38.30;100838.13;5114158;28;20233;-64
2022/10/17 11:42:27;;;;;;;1.47;1.03;;;;;;;20.96;37.51;100845.53;5113439;28;20229;-60